FNME

Menongue Airport

Menongue, Angola
TAF FNME 211100Z 2112/2124 10010KT 9999 FEW022 BECMG 2113/2115 CAVOK
Issued Valid From Valid To
Jul-21 @ 11:00 UTC
(12 hours ago)
Jul-21 @ 12:00 UTC
(11 hours ago)
Jul-22 @ 00:00 UTC
(in an hour)
Expired Click to View Jul-21 @ 12:00 to Jul-21 @ 13:00
TAF FNME 211100Z 2112/2124 10010KT 9999 FEW022
Wind Visibility Clouds
100° at 10 knots 10,000+ meters
  • Few at 2,200' AGL
Becoming Jul-21 @ 13:00 to Jul-22 @ 00:00
BECMG 2113/2115 CAVOK
Wind Visibility Clouds Conditions
100° at 10 knots 10,000+ meters
  • No significant clouds
TAF FNME 211100Z 2112/2124 10010KT 9999 FEW022 BECMG 2113/2115 CAVOK
Issued Jul-21 @ 11:00 UTC
(12 hours ago)
Valid From Jul-21 @ 12:00 UTC
(11 hours ago)
Valid To Jul-22 @ 00:00 UTC
(in an hour)
Jul-21 @ 12:00 - Jul-21 @ 13:00
Wind Visibility
100° at 10 knots 10,000+ meters
Clouds
  • Few at 2,200' AGL
Becoming Jul-21 @ 13:00 - Jul-22 @ 00:00
Wind Visibility
100° at 10 knots 10,000+ meters
Clouds
  • No significant clouds
Conditions